Historyczne dane pomiarowe

Dodano dane terminowe – wersja testowa.

Dane z okresu 1951-2019

Wersja bazy: 1.34 [2019-03-16, lista zmian], aktualizacja planowana na 2019-04-15

Dane meteo z obszaru Polski uzyskane na podstawie danych udostępnionych przez Instytut Meteorologii i Gospodarki Wodnej – Państwowy Instytut Badawczy.

 

Wybierz Datę:    

       

TemperaturaWilgotnośćWiatrCiśnienieOpadyŚniegCzas trwania zjawisk
 Stacja t tx tn tng RH VA  wxwx mslp ppp RRR   cm mm wxwxwxwxwxwxwx
1994-08-14 15.6 20.0 13.0- 66.5- 4.3 4.3---- 0.0------------
1994-08-13 18.1 23.2 14.8- 77.3- 7.0 3.7---- 0.0------------
1994-08-12 17.5 20.1 15.6- 87.0- 7.7 4.7---- 0.6------------
1994-08-11 17.9 23.2 16.0- 94.0- 7.0 3.0---- 6.3------------
1994-08-10 20.6 25.6 14.4- 74.0- 2.3 1.7---- 2.7------------
1994-08-09 19.0 22.3 17.9- 95.0- 8.0 4.7---- 5.9------------
1994-08-08 20.6 28.5 17.7- 81.8- 6.7 1.7---- 1.4------------
1994-08-07 24.3 31.0 19.6- 61.8- 6.7 1.3---- 0.3------------
1994-08-06 23.2 31.2 17.1- 58.0- 1.7 1.7---- 0.0------------
1994-08-05 23.1 29.2 15.6- 69.5- 5.0 1.0---- 0.0------------
1994-08-04 22.4 28.4 17.6- 77.0- 7.0 2.0---- 5.2------------
1994-08-03 23.3 29.7 19.7- 66.5- 7.7 4.3---- 9.8------------
1994-08-02 23.5 30.4 15.7- 69.0- 6.7 2.0---- 0.0------------
1994-08-01 27.8 34.4 20.0- 48.5- 5.0 2.0---- 0.0------------
1994-07-31 27.0 33.2 18.9- 46.0- 2.7 1.3---- 0.0------------
1994-07-30 24.1 33.3 13.6- 56.8- 3.7 1.3---- 0.0------------
1994-07-29 24.6 32.2 13.2- 57.3- 0.3 0.7---- 0.0------------
1994-07-28 24.0 31.7 14.0- 62.3- 4.3 0.7---- 0.0------------
1994-07-27 23.5 32.4 12.9- 61.5- 5.3 1.0---- 0.0------------
1994-07-26 23.7 31.6 14.0- 63.3- 2.7 0.7---- 0.0------------
1994-07-25 23.3 30.4 13.8- 59.8- 3.7 0.3---- 0.0------------
1994-07-24 21.3 28.9 11.5- 62.3- 1.3 0.7---- 0.0------------
1994-07-23 20.6 27.4 10.1- 66.3- 3.0 0.0---- 0.0------------
1994-07-22 20.1 27.3 9.5- 64.5- 1.7 1.3---- 0.0------------
1994-07-21 18.7 25.3 8.5- 64.8- 0.3 2.0---- 0.0------------
1994-07-20 18.3 23.0 11.9- 68.3- 3.3 1.3---- 0.0------------
1994-07-19 19.3 24.9 13.9- 80.3- 8.0 1.7---- 0.0------------
1994-07-18 20.3 26.2 17.2- 82.8- 6.0 0.7---- 0.0------------
1994-07-17 22.3 27.8 17.6- 73.8- 6.3 2.0---- 4.7------------
1994-07-16 22.9 30.0 14.6- 74.5- 3.3 2.0---- 0.0------------
1994-07-15 21.1 27.2 13.4- 79.0- 4.7 1.3---- 0.0------------
1994-07-14 21.3 27.8 13.5- 70.8- 5.3 3.0---- 0.0------------
1994-07-13 20.1 26.6 11.4- 74.5- 5.3 2.3---- 0.0------------
1994-07-12 20.4 24.7 15.8- 78.0- 5.7 1.7---- 0.0------------
1994-07-11 18.5 23.8 12.9- 79.0- 5.7 2.7---- 0.0------------
1994-07-10 15.9 21.0 12.8- 86.0- 7.7 3.7---- 2.2------------
1994-07-09 15.1 17.5 13.4- 78.3- 7.0 4.3---- 28.2------------
1994-07-08 17.3 22.4 15.4- 75.8- 5.7 4.0---- 0.0------------
1994-07-07 18.4 25.9 10.7- 75.8- 7.0 1.3---- 4.2------------
1994-07-06 19.7 24.7 12.9- 70.5- 3.7 1.7---- 0.0------------
1994-07-05 20.4 26.7 11.9- 72.0- 5.0 1.7---- 3.9------------
1994-07-04 19.8 27.2 9.1- 69.0- 1.7 0.7---- 0.0------------
1994-07-03 18.7 25.2 8.3- 65.8- 0.7 1.0---- 0.0------------
1994-07-02 18.3 23.7 9.0- 73.3- 0.7 0.7---- 0.0------------
1994-07-01 19.7 23.1 16.0- 67.3- 2.3 2.3---- 0.0------------
1994-06-30 22.8 27.7 18.4- 78.0- 5.0 4.3---- 0.0------------
1994-06-29 23.5 30.2 16.4- 77.8- 2.3 0.7---- 0.0------------
1994-06-28 23.8 29.2 16.9- 77.0- 2.0 0.7---- 0.0------------
1994-06-27 26.0 31.0 17.6- 70.3- 4.7 1.7---- 0.0------------
1994-06-26 22.0 28.8 10.0- 58.8- 0.7 1.7---- 0.0------------
1994-06-25 15.1 22.1 4.3- 67.3- 0.0 1.7---- 0.0------------
1994-06-24 15.6 21.0 10.4- 59.3- 0.7 3.3---- 0.0------------
1994-06-23 18.5 24.1 16.8- 59.5- 4.0 6.0---- 0.0------------
1994-06-22 19.6 27.2 9.9- 67.8- 3.3 3.3---- 0.0------------
1994-06-21 15.5 20.6 7.0- 70.8- 2.7 1.0---- 0.0------------
1994-06-20 17.0 23.9 11.9- 75.0- 3.7 4.7---- 0.0------------
1994-06-19 18.4 24.6 11.8- 72.0- 5.7 1.7---- 0.0------------
1994-06-18 13.3 19.4 5.4- 75.3- 5.7 2.7---- 5.7------------
1994-06-17 12.1 15.5 9.7- 79.0- 5.0 4.0---- 0.0------------
1994-06-16 13.5 18.0 7.9- 76.5- 6.0 5.7---- 2.7------------
319.9 ms

 

Źródłem pochodzenia danych jest Instytut Meteorologii i Gospodarki Wodnej – Państwowy Instytut Badawczy. Dane Instytutu Meteorologii i Gospodarki Wodnej – Państwowego Instytutu Badawczego zostały przetworzone.

Dane źródłowe można odnaleźć na stronie https://dane.imgw.pl